createdAt,value
2023-03-28T00:01:09.035Z,101092.63
2023-03-28T00:03:39.667Z,101099.75
2023-03-28T00:06:16.530Z,101116.59
2023-03-28T00:08:46.107Z,101113.16
2023-03-28T00:11:20.042Z,101113.50
2023-03-28T00:13:53.565Z,101113.47
2023-03-28T00:16:21.830Z,101119.66
2023-03-28T00:18:51.104Z,101111.81
2023-03-28T00:21:29.249Z,101116.91
2023-03-28T00:24:01.969Z,101119.59
2023-03-28T00:26:32.520Z,101125.88
2023-03-28T00:29:03.546Z,101110.78
2023-03-28T00:31:32.379Z,101125.69
2023-03-28T00:34:00.042Z,101131.59
2023-03-28T00:36:29.547Z,101132.56
2023-03-28T00:38:57.848Z,101130.06
2023-03-28T00:41:31.302Z,101145.91
2023-03-28T00:44:00.005Z,101150.00
2023-03-28T00:46:33.784Z,101155.47
2023-03-28T00:49:07.547Z,101158.91
2023-03-28T00:51:39.309Z,101163.09
2023-03-28T00:54:10.035Z,101164.38
2023-03-28T00:56:38.633Z,101164.09
2023-03-28T00:59:12.167Z,101154.28
2023-03-28T01:01:39.898Z,101156.66
2023-03-28T01:04:10.347Z,101171.53
2023-03-28T01:06:45.422Z,101170.72
2023-03-28T01:09:17.167Z,101166.56
2023-03-28T01:11:49.759Z,101176.44
2023-03-28T01:14:20.840Z,101183.09
2023-03-28T01:16:51.274Z,101177.13
2023-03-28T01:19:30.116Z,101192.88
2023-03-28T01:22:16.106Z,101190.91
2023-03-28T01:25:16.660Z,101187.53
2023-03-28T01:28:19.769Z,101195.44
2023-03-28T01:31:13.889Z,101199.84
2023-03-28T01:34:18.085Z,101203.50
2023-03-28T01:37:05.644Z,101207.13
2023-03-28T01:40:06.357Z,101210.56
2023-03-28T01:42:51.857Z,101211.63
2023-03-28T01:45:26.232Z,101220.41
2023-03-28T01:48:06.860Z,101213.94
2023-03-28T01:50:44.409Z,101221.66
2023-03-28T01:53:21.741Z,101233.97
2023-03-28T01:56:10.554Z,101227.19
2023-03-28T01:58:46.599Z,101244.34
2023-03-28T02:01:26.447Z,101234.13
2023-03-28T02:04:06.437Z,101233.91
2023-03-28T02:06:57.481Z,101221.03
2023-03-28T02:09:32.490Z,101237.66
2023-03-28T02:12:48.951Z,101235.16
2023-03-28T02:15:35.208Z,101237.88
2023-03-28T02:18:29.651Z,101242.13
2023-03-28T02:21:21.098Z,101244.22
2023-03-28T02:24:05.179Z,101246.28
2023-03-28T02:26:54.575Z,101245.38
2023-03-28T02:30:01.414Z,101238.47
2023-03-28T02:32:34.204Z,101239.50
2023-03-28T02:35:05.062Z,101242.94
2023-03-28T02:37:49.693Z,101240.25
2023-03-28T02:40:40.608Z,101237.53
2023-03-28T02:43:47.065Z,101245.59
2023-03-28T02:46:41.157Z,101241.50
2023-03-28T02:49:43.845Z,101244.81
2023-03-28T02:52:23.674Z,101254.88
2023-03-28T02:54:58.033Z,101257.50
2023-03-28T02:57:48.678Z,101252.91
2023-03-28T03:00:20.534Z,101260.34
2023-03-28T03:02:51.698Z,101248.91
2023-03-28T03:05:21.578Z,101257.19
2023-03-28T03:07:50.452Z,101261.03
2023-03-28T03:10:21.098Z,101253.34
2023-03-28T03:12:48.960Z,101262.03
2023-03-28T03:15:17.267Z,101257.06
2023-03-28T03:17:53.132Z,101256.97
2023-03-28T03:20:26.591Z,101263.81
2023-03-28T03:22:54.928Z,101277.66
2023-03-28T03:25:22.392Z,101276.66
2023-03-28T03:27:56.896Z,101275.75
2023-03-28T03:30:24.383Z,101281.59
2023-03-28T03:33:18.008Z,101287.53
2023-03-28T03:35:48.568Z,101287.75
2023-03-28T03:38:18.495Z,101288.69
2023-03-28T03:40:45.976Z,101293.50
2023-03-28T03:43:14.329Z,101286.81
2023-03-28T03:45:45.963Z,101282.34
2023-03-28T03:48:13.950Z,101291.75
2023-03-28T03:50:41.853Z,101277.59
2023-03-28T03:53:16.828Z,101285.28
2023-03-28T03:56:01.598Z,101289.13
2023-03-28T03:58:35.068Z,101305.94
2023-03-28T04:01:09.896Z,101294.69
2023-03-28T04:03:37.899Z,101305.41
2023-03-28T04:06:06.086Z,101307.75
2023-03-28T04:08:34.288Z,101304.13
2023-03-28T04:11:02.553Z,101308.31
2023-03-28T04:13:36.952Z,101310.78
2023-03-28T04:16:04.721Z,101308.47
2023-03-28T04:18:40.640Z,101325.47
2023-03-28T04:21:09.795Z,101310.81
2023-03-28T04:23:43.683Z,101306.94
2023-03-28T04:26:26.334Z,101321.94
2023-03-28T04:29:04.276Z,101314.47
2023-03-28T04:31:36.065Z,101314.84
2023-03-28T04:34:41.652Z,101316.75
2023-03-28T04:37:13.354Z,101340.94
2023-03-28T04:39:49.790Z,101330.84
2023-03-28T04:42:55.756Z,101330.78
2023-03-28T04:45:34.191Z,101322.28
2023-03-28T04:48:12.169Z,101321.22
2023-03-28T04:50:39.720Z,101329.09
2023-03-28T04:53:07.296Z,101321.59
2023-03-28T04:55:36.118Z,101320.66
2023-03-28T04:58:20.786Z,101321.41
2023-03-28T05:00:49.744Z,101338.91
2023-03-28T05:03:26.273Z,101324.06
2023-03-28T05:06:04.080Z,101342.34
2023-03-28T05:08:32.714Z,101345.84
2023-03-28T05:11:03.736Z,101340.31
2023-03-28T05:13:34.901Z,101336.50
2023-03-28T05:16:12.118Z,101352.81
2023-03-28T05:19:06.522Z,101344.91
2023-03-28T05:22:01.952Z,101355.41
2023-03-28T05:24:30.889Z,101354.47
2023-03-28T05:27:18.081Z,101357.28
2023-03-28T05:30:35.384Z,101355.72
2023-03-28T05:33:02.997Z,101350.34
2023-03-28T05:35:54.302Z,101352.81
2023-03-28T05:38:21.999Z,101358.25
2023-03-28T05:40:54.004Z,101380.44
2023-03-28T05:43:23.168Z,101375.16
2023-03-28T05:49:45.437Z,101371.63
2023-03-28T05:52:17.273Z,101382.28
2023-03-28T05:54:51.030Z,101389.53
2023-03-28T05:57:22.281Z,101411.03
2023-03-28T05:59:52.660Z,101400.88
2023-03-28T06:02:24.403Z,101398.97
2023-03-28T06:04:58.011Z,101399.88
2023-03-28T06:07:39.223Z,101404.53
2023-03-28T06:10:12.346Z,101407.63
2023-03-28T06:12:41.518Z,101409.53
2023-03-28T06:15:10.560Z,101415.19
2023-03-28T06:17:42.696Z,101416.94
2023-03-28T06:20:10.868Z,101410.34
2023-03-28T06:22:39.810Z,101426.22
2023-03-28T06:25:20.121Z,101440.94
2023-03-28T06:28:03.647Z,101435.44
2023-03-28T06:30:32.571Z,101429.81
2023-03-28T06:33:01.460Z,101442.66
2023-03-28T06:35:29.786Z,101450.16
2023-03-28T06:38:00.681Z,101457.13
2023-03-28T06:40:28.306Z,101440.22
2023-03-28T06:42:56.138Z,101451.19
2023-03-28T06:45:38.142Z,101456.06
2023-03-28T06:48:09.849Z,101460.28
2023-03-28T06:51:04.118Z,101457.38
2023-03-28T06:53:32.775Z,101466.06
2023-03-28T06:56:00.538Z,101469.09
2023-03-28T06:58:30.570Z,101467.78
2023-03-28T07:01:06.044Z,101473.94
2023-03-28T07:03:46.087Z,101478.66
2023-03-28T07:06:23.213Z,101491.91
2023-03-28T07:08:54.736Z,101500.88
2023-03-28T07:11:38.932Z,101506.78
2023-03-28T07:14:06.624Z,101514.25
2023-03-28T07:16:34.352Z,101520.56
2023-03-28T07:19:03.342Z,101529.84
2023-03-28T07:21:34.574Z,101528.41
2023-03-28T07:24:30.089Z,101539.91
2023-03-28T07:27:16.143Z,101528.81
2023-03-28T07:29:46.227Z,101542.19
2023-03-28T07:32:14.488Z,101552.03
2023-03-28T07:34:45.215Z,101553.41
2023-03-28T07:37:18.761Z,101558.53
2023-03-28T07:40:07.133Z,101557.19
2023-03-28T07:42:35.954Z,101561.28
2023-03-28T07:45:03.911Z,101566.34
2023-03-28T07:47:31.750Z,101564.25
2023-03-28T07:49:59.392Z,101577.66
2023-03-28T07:52:28.215Z,101585.34
2023-03-28T07:54:56.300Z,101579.28
2023-03-28T07:57:26.066Z,101580.84
2023-03-28T08:00:00.416Z,101585.16
2023-03-28T08:02:30.615Z,101585.72
2023-03-28T08:04:58.361Z,101600.31
2023-03-28T08:39:42.702Z,101618.84
2023-03-28T08:42:24.605Z,101630.91
2023-03-28T08:45:08.963Z,101622.91
2023-03-28T08:47:44.030Z,101640.97
2023-03-28T08:50:23.962Z,101625.72
2023-03-28T08:52:52.430Z,101628.13
2023-03-28T08:55:42.795Z,101622.06
2023-03-28T08:58:21.206Z,101631.19
2023-03-28T09:00:50.766Z,101638.06
2023-03-28T09:03:23.361Z,101624.78
2023-03-28T09:06:14.674Z,101614.31
2023-03-28T09:09:22.579Z,101625.66
2023-03-28T09:12:31.103Z,101627.00
2023-03-28T09:15:19.139Z,101627.50
2023-03-28T09:18:15.815Z,101623.25
2023-03-28T09:21:01.738Z,101620.47
2023-03-28T09:23:45.674Z,101625.81
2023-03-28T09:26:47.904Z,101615.47
2023-03-28T09:29:25.035Z,101617.94
2023-03-28T09:31:59.743Z,101623.91
2023-03-28T09:34:37.290Z,101623.50
2023-03-28T09:37:28.302Z,101622.13
2023-03-28T09:40:01.488Z,101643.00
2023-03-28T09:43:10.594Z,101647.00
2023-03-28T09:46:06.601Z,101632.31
2023-03-28T09:48:43.108Z,101631.81
2023-03-28T09:51:16.994Z,101636.13
2023-03-28T09:53:44.728Z,101640.06
2023-03-28T09:56:15.475Z,101642.81
2023-03-28T09:58:50.058Z,101628.81
2023-03-28T10:01:32.985Z,101636.81
2023-03-28T10:04:19.058Z,101626.34
2023-03-28T10:07:11.356Z,101634.16
2023-03-28T10:09:57.405Z,101625.75
2023-03-28T10:12:34.037Z,101634.25
2023-03-28T10:15:01.749Z,101624.72
2023-03-28T10:17:51.046Z,101631.22
2023-03-28T10:20:25.025Z,101615.53
2023-03-28T10:22:57.242Z,101620.69
2023-03-28T10:25:38.926Z,101614.53
2023-03-28T10:28:13.980Z,101615.00
2023-03-28T10:30:42.519Z,101627.34
2023-03-28T10:33:17.040Z,101621.25
2023-03-28T10:36:12.822Z,101615.94
2023-03-28T10:38:43.373Z,101612.97
2023-03-28T10:41:29.686Z,101615.06
2023-03-28T10:44:24.951Z,101605.84
2023-03-28T10:47:06.325Z,101617.16
2023-03-28T10:49:51.186Z,101612.47
2023-03-28T10:52:44.436Z,101605.72
2023-03-28T10:55:23.479Z,101607.00
2023-03-28T10:58:34.061Z,101610.09
2023-03-28T11:01:21.205Z,101605.53
2023-03-28T11:04:28.007Z,101592.91
2023-03-28T11:07:28.852Z,101606.53
2023-03-28T11:10:25.450Z,101597.81
2023-03-28T11:13:19.385Z,101603.63
2023-03-28T11:15:56.269Z,101598.13
2023-03-28T11:18:38.326Z,101603.41
2023-03-28T11:21:32.893Z,101599.88
2023-03-28T11:24:23.080Z,101593.84
2023-03-28T11:27:20.149Z,101594.19
2023-03-28T11:30:21.106Z,101584.31
2023-03-28T11:33:25.278Z,101600.03
2023-03-28T11:36:08.460Z,101586.56
2023-03-28T11:38:48.818Z,101585.50
2023-03-28T11:41:27.568Z,101587.75
2023-03-28T11:44:27.162Z,101582.56
2023-03-28T11:47:15.275Z,101580.69
2023-03-28T11:50:08.954Z,101562.91
2023-03-28T11:53:14.533Z,101582.94
2023-03-28T11:56:11.528Z,101564.84
2023-03-28T11:59:06.237Z,101563.75
2023-03-28T12:01:41.713Z,101564.03
2023-03-28T12:04:27.574Z,101582.63
2023-03-28T12:07:07.408Z,101569.78
2023-03-28T12:09:58.875Z,101576.50
2023-03-28T12:12:35.644Z,101560.09
2023-03-28T12:15:30.267Z,101558.50
2023-03-28T12:18:22.901Z,101568.31
2023-03-28T12:21:21.819Z,101562.16
2023-03-28T12:24:13.902Z,101568.56
2023-03-28T12:30:37.485Z,101544.06
2023-03-28T12:33:29.926Z,101540.03
2023-03-28T12:36:42.893Z,101544.72
2023-03-28T12:39:36.042Z,101531.47
2023-03-28T12:42:14.868Z,101532.09
2023-03-28T12:44:59.787Z,101530.75
2023-03-28T12:47:39.051Z,101528.97
2023-03-28T12:50:25.377Z,101531.00
2023-03-28T12:52:54.180Z,101524.34
2023-03-28T12:55:28.931Z,101532.16
2023-03-28T12:58:35.303Z,101528.16
2023-03-28T13:01:19.270Z,101521.59
2023-03-28T13:04:32.926Z,101519.97
2023-03-28T13:10:53.013Z,101524.19
2023-03-28T13:13:40.780Z,101508.75
2023-03-28T13:16:22.859Z,101514.25
2023-03-28T13:19:09.706Z,101511.63
2023-03-28T13:22:13.284Z,101506.38
2023-03-28T13:29:20.974Z,101510.59
2023-03-28T13:31:50.301Z,101497.97
2023-03-28T13:35:37.516Z,101510.97
2023-03-28T13:38:47.536Z,101515.16
2023-03-28T13:42:33.492Z,101508.41
2023-03-28T13:49:28.481Z,101501.28
2023-03-28T13:52:26.093Z,101499.63
2023-03-28T13:55:48.682Z,101491.44
2023-03-28T13:58:56.070Z,101494.34
2023-03-28T14:02:26.794Z,101494.00
2023-03-28T14:05:42.403Z,101496.66
2023-03-28T14:08:30.674Z,101493.41
2023-03-28T14:15:00.620Z,101484.56
2023-03-28T14:18:15.288Z,101474.25
2023-03-28T14:20:45.699Z,101468.66
2023-03-28T14:23:35.597Z,101484.06
2023-03-28T14:26:13.672Z,101473.41
2023-03-28T14:28:51.567Z,101479.13
2023-03-28T14:31:37.584Z,101473.81
2023-03-28T14:34:45.486Z,101462.47
2023-03-28T14:37:18.585Z,101473.88
2023-03-28T14:39:55.808Z,101460.94
2023-03-28T14:42:28.766Z,101449.63
2023-03-28T14:44:56.735Z,101460.59
2023-03-28T14:47:34.377Z,101462.25
2023-03-28T14:50:09.085Z,101452.25
2023-03-28T14:52:41.035Z,101451.00
2023-03-28T14:55:21.101Z,101445.47
2023-03-28T14:57:53.732Z,101462.84
2023-03-28T15:00:42.605Z,101455.25
2023-03-28T15:03:19.037Z,101466.34
2023-03-28T15:05:50.106Z,101449.22
2023-03-28T15:08:34.471Z,101442.34
2023-03-28T15:11:08.452Z,101444.28
2023-03-28T15:13:39.051Z,101445.84
2023-03-28T15:16:10.231Z,101441.91
2023-03-28T15:18:46.859Z,101435.59
2023-03-28T15:21:15.378Z,101433.00
2023-03-28T15:23:50.690Z,101433.03
2023-03-28T15:26:38.492Z,101435.28
2023-03-28T15:29:08.923Z,101434.75
2023-03-28T15:31:40.934Z,101438.66
2023-03-28T15:34:18.741Z,101427.56
2023-03-28T15:36:50.646Z,101439.38
2023-03-28T15:39:44.598Z,101441.22
2023-03-28T15:42:12.190Z,101447.41
2023-03-28T15:44:43.420Z,101436.13
2023-03-28T15:47:15.127Z,101443.50
2023-03-28T15:49:42.791Z,101442.03
2023-03-28T15:52:21.532Z,101452.75
2023-03-28T15:54:54.366Z,101468.44
2023-03-28T15:57:26.155Z,101457.88
2023-03-28T15:59:58.117Z,101458.88
2023-03-28T16:02:32.079Z,101463.25
2023-03-28T16:05:00.802Z,101464.50
2023-03-28T16:07:35.982Z,101459.78
2023-03-28T16:10:04.320Z,101459.66
2023-03-28T16:12:37.012Z,101468.31
2023-03-28T16:15:31.543Z,101464.63
2023-03-28T16:18:08.015Z,101476.16
2023-03-28T16:20:47.695Z,101466.94
2023-03-28T16:23:15.196Z,101466.03
2023-03-28T16:25:43.793Z,101470.41
2023-03-28T16:28:17.708Z,101476.09
2023-03-28T16:30:46.350Z,101482.22
2023-03-28T16:33:14.194Z,101471.84
2023-03-28T16:35:43.626Z,101480.72
2023-03-28T16:38:11.941Z,101465.28
2023-03-28T16:40:39.617Z,101475.00
2023-03-28T16:43:08.019Z,101464.66
2023-03-28T16:45:38.753Z,101465.69
2023-03-28T16:48:07.347Z,101457.72
2023-03-28T16:50:36.253Z,101476.19
2023-03-28T16:53:06.757Z,101471.09
2023-03-28T16:55:34.336Z,101470.31
2023-03-28T16:58:03.059Z,101477.59
2023-03-28T17:00:38.991Z,101484.72
2023-03-28T17:03:07.164Z,101478.69
2023-03-28T17:05:38.651Z,101481.31
2023-03-28T17:08:06.434Z,101491.22
2023-03-28T17:10:34.893Z,101480.81
2023-03-28T17:13:05.046Z,101480.88
2023-03-28T17:15:33.804Z,101478.19
2023-03-28T17:18:02.080Z,101483.72
2023-03-28T17:20:31.217Z,101482.91
2023-03-28T17:22:58.804Z,101478.69
2023-03-28T17:25:26.840Z,101479.63
2023-03-28T17:27:54.607Z,101478.00
2023-03-28T17:30:22.198Z,101486.03
2023-03-28T17:32:51.423Z,101486.09
2023-03-28T17:35:19.279Z,101483.44
2023-03-28T17:37:47.311Z,101479.22
2023-03-28T17:40:15.620Z,101484.50
2023-03-28T17:42:43.213Z,101485.38
2023-03-28T17:45:10.929Z,101481.06
2023-03-28T17:47:39.566Z,101489.88
2023-03-28T17:50:07.648Z,101487.28
2023-03-28T17:52:35.514Z,101493.47
2023-03-28T17:55:03.512Z,101490.88
2023-03-28T17:57:31.665Z,101500.56
2023-03-28T18:00:01.256Z,101511.22
2023-03-28T18:02:29.174Z,101507.75
2023-03-28T18:05:11.193Z,101513.94
2023-03-28T18:07:40.380Z,101513.03
2023-03-28T18:10:09.692Z,101514.84
2023-03-28T18:15:23.933Z,101526.31
2023-03-28T18:17:52.062Z,101514.00
2023-03-28T18:20:21.774Z,101536.88
2023-03-28T18:22:50.927Z,101525.44
2023-03-28T18:25:18.685Z,101530.69
2023-03-28T18:27:46.440Z,101541.28
2023-03-28T18:30:14.944Z,101547.41
2023-03-28T18:32:43.271Z,101546.50
2023-03-28T18:35:11.504Z,101542.09
2023-03-28T18:37:38.917Z,101538.59
2023-03-28T18:40:11.179Z,101554.38
2023-03-28T18:42:38.887Z,101549.09
2023-03-28T18:45:07.760Z,101563.09
2023-03-28T18:47:38.712Z,101560.47
2023-03-28T18:50:07.574Z,101570.13
2023-03-28T18:52:35.155Z,101578.91
2023-03-28T18:55:02.582Z,101571.81
2023-03-28T18:57:30.154Z,101575.31
2023-03-28T18:59:57.718Z,101574.34
2023-03-28T19:02:26.628Z,101576.06
2023-03-28T19:04:54.735Z,101573.41
2023-03-28T19:07:22.593Z,101576.06
2023-03-28T19:09:50.279Z,101573.38
2023-03-28T19:12:17.837Z,101581.19
2023-03-28T19:14:45.643Z,101581.19
2023-03-28T19:17:13.177Z,101593.31
2023-03-28T19:19:40.691Z,101584.59
2023-03-28T19:22:08.255Z,101599.56
2023-03-28T19:24:35.719Z,101599.47
2023-03-28T19:27:05.233Z,101598.56
2023-03-28T19:29:33.388Z,101594.19
2023-03-28T19:32:01.025Z,101606.34
2023-03-28T19:34:29.650Z,101599.34
2023-03-28T19:36:57.165Z,101600.28
2023-03-28T19:39:24.759Z,101596.75
2023-03-28T19:41:52.416Z,101600.38
2023-03-28T19:44:21.220Z,101605.66
2023-03-28T19:47:14.125Z,101615.03
2023-03-28T19:49:39.716Z,101602.66
2023-03-28T19:52:10.023Z,101604.44
2023-03-28T19:54:37.908Z,101589.38
2023-03-28T19:57:08.100Z,101602.50
2023-03-28T19:59:36.449Z,101606.94
2023-03-28T20:02:04.109Z,101595.44
2023-03-28T20:04:32.005Z,101619.16
2023-03-28T20:06:59.656Z,101610.97
2023-03-28T20:09:27.274Z,101615.00
2023-03-28T20:11:54.781Z,101622.38
2023-03-28T20:14:22.666Z,101609.44
2023-03-28T20:16:50.738Z,101609.72
2023-03-28T20:19:18.563Z,101615.19
2023-03-28T20:21:47.295Z,101611.94
2023-03-28T20:24:18.172Z,101610.78
2023-03-28T20:26:47.095Z,101603.94
2023-03-28T20:29:15.191Z,101613.63
2023-03-28T20:31:42.976Z,101611.88
2023-03-28T20:34:11.863Z,101622.41
2023-03-28T20:36:41.617Z,101623.19
2023-03-28T20:39:09.833Z,101627.50
2023-03-28T20:41:38.548Z,101634.38
2023-03-28T20:44:07.520Z,101628.28
2023-03-28T20:46:39.975Z,101630.06
2023-03-28T20:49:16.846Z,101615.00
2023-03-28T20:51:46.062Z,101629.16
2023-03-28T20:54:14.115Z,101625.41
2023-03-28T20:56:42.773Z,101616.84
2023-03-28T20:59:10.315Z,101623.84
2023-03-28T21:01:39.638Z,101614.97
2023-03-28T21:04:07.246Z,101611.44
2023-03-28T21:06:38.114Z,101614.13
2023-03-28T21:09:08.604Z,101612.50
2023-03-28T21:11:38.959Z,101616.84
2023-03-28T21:14:08.323Z,101609.66
2023-03-28T21:16:37.714Z,101622.88
2023-03-28T21:19:06.219Z,101620.94
2023-03-28T21:21:34.441Z,101629.75
2023-03-28T21:24:03.435Z,101636.53
2023-03-28T21:26:31.647Z,101646.97
2023-03-28T21:28:59.683Z,101642.63
2023-03-28T21:31:29.521Z,101637.44
2023-03-28T21:33:59.084Z,101635.75
2023-03-28T21:36:27.939Z,101626.94
2023-03-28T21:38:57.028Z,101628.69
2023-03-28T21:41:24.935Z,101628.31
2023-03-28T21:43:54.790Z,101622.31
2023-03-28T21:46:22.900Z,101622.31
2023-03-28T21:48:50.588Z,101619.78
2023-03-28T21:51:18.351Z,101614.25
2023-03-28T21:53:46.364Z,101628.34
2023-03-28T21:56:14.961Z,101616.22
2023-03-28T21:58:42.661Z,101633.59
2023-03-28T22:01:14.232Z,101627.44
2023-03-28T22:03:42.088Z,101617.78
2023-03-28T22:06:09.868Z,101613.50
2023-03-28T22:08:38.002Z,101617.00
2023-03-28T22:11:32.894Z,101625.53
2023-03-28T22:14:05.089Z,101630.84
2023-03-28T22:16:36.394Z,101623.19
2023-03-28T22:19:05.941Z,101627.47
2023-03-28T22:21:33.721Z,101647.69
2023-03-28T22:24:06.702Z,101640.56
2023-03-28T22:26:36.047Z,101643.03
2023-03-28T22:29:05.128Z,101645.59
2023-03-28T22:31:33.065Z,101644.03
2023-03-28T22:34:00.650Z,101630.28
2023-03-28T22:36:28.312Z,101640.78
2023-03-28T22:38:57.235Z,101635.97
2023-03-28T22:41:30.152Z,101643.31
2023-03-28T22:43:59.183Z,101629.41
2023-03-28T22:46:26.904Z,101638.06
2023-03-28T22:48:58.669Z,101646.47
2023-03-28T22:51:28.269Z,101641.91
2023-03-28T22:54:00.412Z,101651.38
2023-03-28T22:56:28.147Z,101647.09
2023-03-28T22:58:56.025Z,101642.59
2023-03-28T23:01:26.224Z,101635.38
2023-03-28T23:03:53.774Z,101634.19
2023-03-28T23:06:21.282Z,101635.28
2023-03-28T23:08:48.786Z,101634.06
2023-03-28T23:11:16.406Z,101638.31
2023-03-28T23:13:43.884Z,101655.09
2023-03-28T23:16:11.489Z,101648.31
2023-03-28T23:18:39.205Z,101657.78
2023-03-28T23:21:08.539Z,101650.72
2023-03-28T23:23:36.460Z,101647.13
2023-03-28T23:26:04.087Z,101641.06
2023-03-28T23:28:31.774Z,101633.34
2023-03-28T23:30:59.872Z,101638.50
2023-03-28T23:33:27.456Z,101629.94
2023-03-28T23:35:55.009Z,101641.03
2023-03-28T23:38:22.739Z,101648.47
2023-03-28T23:40:50.210Z,101651.50
2023-03-28T23:43:17.711Z,101650.69
2023-03-28T23:45:45.429Z,101643.53
2023-03-28T23:48:13.325Z,101640.78
2023-03-28T23:50:41.154Z,101638.91
2023-03-28T23:53:09.518Z,101643.09
2023-03-28T23:55:37.354Z,101642.34
2023-03-28T23:58:05.050Z,101634.88
